createdAt,value
2022-08-23T00:00:44.496Z,20.53
2022-08-23T00:05:50.161Z,20.58
2022-08-23T00:10:55.758Z,20.52
2022-08-23T00:16:02.033Z,20.52
2022-08-23T00:21:09.459Z,20.56
2022-08-23T00:26:15.086Z,20.59
2022-08-23T00:31:22.080Z,20.56
2022-08-23T00:36:27.649Z,20.53
2022-08-23T00:41:34.417Z,20.54
2022-08-23T00:47:12.975Z,20.51
2022-08-23T00:52:30.614Z,20.50
2022-08-23T00:57:37.451Z,20.49
2022-08-23T01:02:45.556Z,20.46
2022-08-23T01:07:57.072Z,20.47
2022-08-23T01:13:20.828Z,20.51
2022-08-23T01:18:28.951Z,20.50
2022-08-23T01:23:40.457Z,20.51
2022-08-23T01:28:46.331Z,20.49
2022-08-23T01:34:00.919Z,20.53
2022-08-23T01:39:08.447Z,20.53
2022-08-23T01:44:15.007Z,20.49
2022-08-23T01:49:20.988Z,20.51
2022-08-23T01:54:26.654Z,20.52
2022-08-23T01:59:34.305Z,20.53
2022-08-23T02:04:39.923Z,20.50
2022-08-23T02:09:46.205Z,20.47
2022-08-23T02:14:52.382Z,20.46
2022-08-23T02:20:00.137Z,20.47
2022-08-23T02:25:06.759Z,20.47
2022-08-23T02:30:13.130Z,20.46
2022-08-23T02:35:19.665Z,20.37
2022-08-23T02:40:25.306Z,20.35
2022-08-23T02:45:31.374Z,20.30
2022-08-23T02:50:37.999Z,20.30
2022-08-23T02:55:48.114Z,20.30
2022-08-23T03:00:54.742Z,20.31
2022-08-23T03:06:24.915Z,20.24
2022-08-23T03:11:17.198Z,20.27
2022-08-23T03:16:23.737Z,20.27
2022-08-23T03:21:29.413Z,20.30
2022-08-23T03:26:35.075Z,20.30
2022-08-23T03:31:42.178Z,20.30
2022-08-23T03:36:49.483Z,20.32
2022-08-23T03:41:55.801Z,20.31
2022-08-23T03:47:02.487Z,20.28
2022-08-23T03:52:08.629Z,20.27
2022-08-23T03:57:14.410Z,20.32
2022-08-23T04:02:20.994Z,20.35
2022-08-23T04:07:27.407Z,20.31
2022-08-23T04:12:34.387Z,20.23
2022-08-23T04:17:42.683Z,20.23
2022-08-23T04:22:51.352Z,20.22
2022-08-23T04:27:57.556Z,20.29
2022-08-23T04:33:03.589Z,20.26
2022-08-23T04:38:24.736Z,20.22
2022-08-23T04:43:19.650Z,20.22
2022-08-23T04:48:25.415Z,20.32
2022-08-23T04:53:33.073Z,20.36
2022-08-23T04:58:46.571Z,20.37
2022-08-23T05:03:53.163Z,20.43
2022-08-23T05:09:02.003Z,20.39
2022-08-23T05:14:08.388Z,20.46
2022-08-23T05:19:15.041Z,20.45
2022-08-23T05:24:22.379Z,20.53
2022-08-23T05:29:29.501Z,20.68
2022-08-23T05:34:35.297Z,20.72
2022-08-23T05:39:43.280Z,20.91
2022-08-23T05:44:49.149Z,21.01
2022-08-23T05:49:56.408Z,21.08
2022-08-23T05:55:02.989Z,21.25
2022-08-23T06:00:16.606Z,21.35
2022-08-23T06:05:24.107Z,21.48
2022-08-23T06:10:30.090Z,21.65
2022-08-23T06:15:37.333Z,21.80
2022-08-23T06:20:43.165Z,21.91
2022-08-23T06:25:50.519Z,22.21
2022-08-23T06:30:58.752Z,22.32
2022-08-23T06:36:13.363Z,22.53
2022-08-23T06:41:26.832Z,22.68
2022-08-23T06:46:39.035Z,22.76
2022-08-23T06:51:48.969Z,22.93
2022-08-23T06:56:57.004Z,22.93
2022-08-23T07:02:12.460Z,23.02
2022-08-23T07:07:41.354Z,23.12
2022-08-23T07:12:45.908Z,23.30
2022-08-23T07:17:52.245Z,23.52
2022-08-23T07:22:59.191Z,23.47
2022-08-23T07:28:09.814Z,23.46
2022-08-23T07:33:12.765Z,23.43
2022-08-23T07:38:20.457Z,23.53
2022-08-23T07:43:26.067Z,23.62
2022-08-23T07:48:53.008Z,23.63
2022-08-23T07:53:46.075Z,23.81
2022-08-23T07:58:51.923Z,23.93
2022-08-23T08:04:12.655Z,23.98
2022-08-23T08:09:20.811Z,23.98
2022-08-23T08:14:26.639Z,24.09
2022-08-23T08:19:33.944Z,24.20
2022-08-23T08:24:50.466Z,24.22
2022-08-23T08:29:56.645Z,24.13
2022-08-23T08:35:02.822Z,24.25
2022-08-23T08:40:10.181Z,24.32
2022-08-23T08:45:21.941Z,24.29
2022-08-23T08:50:44.503Z,24.33
2022-08-23T08:55:53.275Z,24.46
2022-08-23T09:00:59.932Z,24.55
2022-08-23T09:06:39.107Z,24.57
2022-08-23T09:12:19.670Z,24.57
2022-08-23T09:17:28.624Z,24.53
2022-08-23T09:22:39.036Z,24.52
2022-08-23T09:27:48.552Z,24.56
2022-08-23T09:32:55.871Z,24.53
2022-08-23T09:38:05.722Z,24.63
2022-08-23T09:43:27.118Z,24.66
2022-08-23T09:48:44.925Z,24.90
2022-08-23T09:54:13.419Z,24.95
2022-08-23T09:59:29.626Z,25.11
2022-08-23T10:04:40.583Z,25.05
2022-08-23T10:09:46.286Z,25.04
2022-08-23T10:14:53.550Z,25.04
2022-08-23T10:20:36.859Z,24.97
2022-08-23T10:25:45.597Z,24.93
2022-08-23T10:31:12.618Z,25.03
2022-08-23T10:36:21.692Z,25.03
2022-08-23T10:42:01.874Z,25.16
2022-08-23T10:47:14.404Z,25.23
2022-08-23T10:52:30.408Z,25.39
2022-08-23T10:57:39.356Z,25.59
2022-08-23T11:02:54.255Z,25.56
2022-08-23T11:08:04.597Z,25.56
2022-08-23T11:13:20.934Z,25.56
2022-08-23T11:18:38.799Z,25.61
2022-08-23T11:24:02.700Z,25.73
2022-08-23T11:29:11.524Z,25.68
2022-08-23T11:34:29.765Z,25.72
2022-08-23T11:39:56.142Z,25.66
2022-08-23T11:45:02.497Z,25.47
2022-08-23T11:50:29.359Z,25.40
2022-08-23T11:56:03.716Z,25.45
2022-08-23T12:01:12.038Z,25.52
2022-08-23T12:06:39.090Z,25.58
2022-08-23T12:11:57.894Z,25.66
2022-08-23T12:17:06.395Z,25.78
2022-08-23T12:22:24.902Z,25.84
2022-08-23T12:27:39.366Z,25.82
2022-08-23T12:33:13.621Z,26.08
2022-08-23T12:38:41.598Z,26.29
2022-08-23T12:44:03.240Z,26.36
2022-08-23T12:49:13.266Z,26.46
2022-08-23T12:54:25.509Z,26.65
2022-08-23T12:59:46.353Z,26.96
2022-08-23T13:04:53.467Z,26.64
2022-08-23T13:09:59.244Z,26.51
2022-08-23T13:15:06.142Z,26.50
2022-08-23T13:20:21.935Z,26.46
2022-08-23T13:25:32.229Z,26.28
2022-08-23T13:30:39.585Z,26.18
2022-08-23T13:35:49.620Z,26.10
2022-08-23T13:41:11.064Z,26.07
2022-08-23T13:46:22.891Z,26.21
2022-08-23T13:51:38.818Z,26.31
2022-08-23T13:56:53.337Z,26.34
2022-08-23T14:02:02.144Z,26.41
2022-08-23T14:07:16.934Z,26.43
2022-08-23T14:12:27.606Z,26.49
2022-08-23T14:17:39.286Z,26.40
2022-08-23T14:22:48.156Z,26.22
2022-08-23T14:27:54.540Z,26.23
2022-08-23T14:33:01.579Z,26.33
2022-08-23T14:38:07.328Z,26.37
2022-08-23T14:43:13.896Z,26.26
2022-08-23T14:48:19.976Z,26.22
2022-08-23T14:53:28.545Z,26.14
2022-08-23T14:58:35.644Z,26.02
2022-08-23T15:03:42.183Z,26.07
2022-08-23T15:08:48.973Z,25.93
2022-08-23T15:13:56.145Z,25.87
2022-08-23T15:19:02.710Z,25.75
2022-08-23T15:24:10.609Z,25.82
2022-08-23T15:29:19.197Z,25.77
2022-08-23T15:34:25.003Z,25.59
2022-08-23T15:39:31.392Z,25.48
2022-08-23T15:44:36.985Z,25.36
2022-08-23T15:49:43.217Z,25.19
2022-08-23T15:54:49.314Z,25.22
2022-08-23T15:59:56.452Z,25.30
2022-08-23T16:05:02.187Z,25.27
2022-08-23T16:10:09.210Z,25.20
2022-08-23T16:15:14.746Z,25.09
2022-08-23T16:20:20.462Z,25.07
2022-08-23T16:25:26.086Z,25.48
2022-08-23T16:30:31.983Z,25.73
2022-08-23T16:35:37.716Z,25.54
2022-08-23T16:40:43.224Z,25.43
2022-08-23T16:45:49.044Z,25.39
2022-08-23T16:50:54.721Z,25.29
2022-08-23T16:56:00.288Z,25.13
2022-08-23T17:01:06.738Z,25.12
2022-08-23T17:06:12.937Z,25.04
2022-08-23T17:11:20.324Z,24.98
2022-08-23T17:16:26.059Z,24.89
2022-08-23T17:21:32.114Z,24.90
2022-08-23T17:26:37.973Z,24.82
2022-08-23T17:31:44.289Z,24.77
2022-08-23T17:36:52.861Z,24.61
2022-08-23T17:41:59.640Z,24.51
2022-08-23T17:47:08.217Z,24.47
2022-08-23T17:52:16.039Z,24.40
2022-08-23T17:57:23.251Z,24.34
2022-08-23T18:02:29.108Z,24.28
2022-08-23T18:07:35.135Z,24.19
2022-08-23T18:12:40.982Z,24.01
2022-08-23T18:17:46.730Z,23.89
2022-08-23T18:22:52.291Z,23.85
2022-08-23T18:28:07.181Z,23.79
2022-08-23T18:33:13.977Z,23.61
2022-08-23T18:38:20.294Z,23.59
2022-08-23T18:43:27.163Z,23.47
2022-08-23T18:48:34.988Z,23.50
2022-08-23T18:53:40.598Z,23.42
2022-08-23T18:58:48.047Z,23.34
2022-08-23T19:03:54.559Z,23.29
2022-08-23T19:09:01.141Z,23.24
2022-08-23T19:14:08.881Z,23.21
2022-08-23T19:19:14.958Z,23.16
2022-08-23T19:24:20.570Z,23.11
2022-08-23T19:29:26.353Z,23.05
2022-08-23T19:34:32.220Z,23.07
2022-08-23T19:39:38.499Z,23.05
2022-08-23T19:44:44.305Z,23.05
2022-08-23T19:49:51.094Z,23.00
2022-08-23T19:55:01.548Z,22.94
2022-08-23T20:00:09.527Z,22.89
2022-08-23T20:05:15.537Z,22.82
2022-08-23T20:10:21.817Z,22.75
2022-08-23T20:15:27.792Z,22.69
2022-08-23T20:20:33.376Z,22.71
2022-08-23T20:25:39.124Z,22.73
2022-08-23T20:30:44.800Z,22.66
2022-08-23T20:35:51.068Z,22.63
2022-08-23T20:40:58.069Z,22.64
2022-08-23T20:46:06.725Z,22.59
2022-08-23T20:51:12.790Z,22.53
2022-08-23T20:56:19.041Z,22.44
2022-08-23T21:01:27.366Z,22.38
2022-08-23T21:06:38.817Z,23.35
2022-08-23T21:11:45.277Z,22.71
2022-08-23T21:16:51.058Z,22.54
2022-08-23T21:21:56.604Z,22.41
2022-08-23T21:27:02.180Z,22.33
2022-08-23T21:32:09.684Z,22.21
2022-08-23T21:37:15.427Z,22.20
2022-08-23T21:42:23.702Z,22.17
2022-08-23T21:47:29.559Z,22.21
2022-08-23T21:52:35.228Z,22.25
2022-08-23T21:57:41.504Z,22.31
2022-08-23T22:02:49.397Z,22.32
2022-08-23T22:07:55.501Z,22.31
2022-08-23T22:13:01.259Z,22.38
2022-08-23T22:18:07.236Z,22.33
2022-08-23T22:23:12.913Z,22.32
2022-08-23T22:28:18.532Z,22.31
2022-08-23T22:33:24.049Z,22.30
2022-08-23T22:38:29.619Z,22.33
2022-08-23T22:43:35.797Z,22.28
2022-08-23T22:48:41.514Z,22.29
2022-08-23T22:53:50.353Z,22.33
2022-08-23T22:58:56.576Z,22.30
2022-08-23T23:04:07.161Z,22.27
2022-08-23T23:09:14.951Z,22.22
2022-08-23T23:14:22.303Z,22.19
2022-08-23T23:19:46.649Z,22.17
2022-08-23T23:24:52.249Z,22.05
2022-08-23T23:29:57.721Z,22.03
2022-08-23T23:35:04.709Z,22.09
2022-08-23T23:40:11.418Z,22.18
2022-08-23T23:45:17.609Z,22.16
2022-08-23T23:50:23.879Z,22.09
2022-08-23T23:55:30.447Z,22.14
